Time;durP1;ratioP1;P1;durP2;ratioP2;P2;SDS_P1;SDS_P2;PMS_P1;PMS_P2;Temp;Humidity;BMP_temperature;BMP_pressure;BME280_temperature;BME280_humidity;BME280_pressure;Samples;Min_cycle;Max_cycle;Signal;HPM_P1;HPM_P2
2021/10/23 00:01:45;;;;;;;1.60;0.90;;;;;;;;;;5045024;28;20574;-92
2021/10/23 00:04:12;;;;;;;1.63;0.90;;;;;;;;;;5049214;28;20199;-91
2021/10/23 00:06:39;;;;;;;1.50;0.90;;;;;;;;;;5048362;28;20207;-92
2021/10/23 00:09:07;;;;;;;1.57;1.10;;;;;;;;;;5030955;28;20230;-92
2021/10/23 00:11:34;;;;;;;1.27;1.00;;;;;;;;;;5042048;28;20262;-91
2021/10/23 00:14:01;;;;;;;1.90;0.90;;;;;;;;;;5047970;28;20218;-92
2021/10/23 00:16:28;;;;;;;1.80;1.00;;;;;;;;;;5043736;28;20210;-92
2021/10/23 00:18:56;;;;;;;1.40;0.90;;;;;;;;;;5047104;28;20198;-92
2021/10/23 00:21:23;;;;;;;0.77;0.70;;;;;;;;;;5039065;28;20211;-90
2021/10/23 00:23:50;;;;;;;1.00;0.87;;;;;;;;;;5044890;28;20194;-92
2021/10/23 00:26:17;;;;;;;1.23;0.87;;;;;;;;;;5047520;28;20210;-92
2021/10/23 00:28:44;;;;;;;1.20;0.97;;;;;;;;;;5045630;28;20199;-93
2021/10/23 00:31:11;;;;;;;1.27;0.90;;;;;;;;;;5051981;28;20207;-92
2021/10/23 00:33:39;;;;;;;1.07;0.80;;;;;;;;;;5049960;28;20544;-92
2021/10/23 00:36:07;;;;;;;0.93;0.83;;;;;;;;;;5047523;28;20195;-92
2021/10/23 00:38:34;;;;;;;1.30;1.10;;;;;;;;;;5038959;28;20206;-92
2021/10/23 00:41:03;;;;;;;1.40;1.20;;;;;;;;;;5046571;28;20202;-91
2021/10/23 00:43:30;;;;;;;1.73;1.10;;;;;;;;;;5042904;28;20198;-92
2021/10/23 00:45:57;;;;;;;1.47;0.97;;;;;;;;;;5045360;28;20743;-92
2021/10/23 00:48:25;;;;;;;0.83;0.80;;;;;;;;;;5044363;28;20194;-92
2021/10/23 00:50:52;;;;;;;1.00;0.90;;;;;;;;;;5047616;28;20229;-92
2021/10/23 00:53:24;;;;;;;1.47;1.37;;;;;;;;;;5040754;28;20207;-92
2021/10/23 00:55:51;;;;;;;1.27;1.00;;;;;;;;;;5030643;28;20198;-92
2021/10/23 00:58:19;;;;;;;1.87;1.30;;;;;;;;;;5040752;28;20210;-92
2021/10/23 01:00:46;;;;;;;1.40;1.00;;;;;;;;;;5047722;28;20198;-92
2021/10/23 01:03:14;;;;;;;0.90;0.90;;;;;;;;;;5043583;28;20191;-92
2021/10/23 01:05:42;;;;;;;0.93;0.90;;;;;;;;;;5045100;28;20215;-93
2021/10/23 01:08:09;;;;;;;1.47;1.00;;;;;;;;;;5040963;28;20252;-92
2021/10/23 01:10:37;;;;;;;0.87;0.87;;;;;;;;;;5031097;28;20233;-92
2021/10/23 01:13:04;;;;;;;1.97;1.10;;;;;;;;;;5042508;28;20808;-92
2021/10/23 01:15:32;;;;;;;1.50;1.00;;;;;;;;;;5044519;28;20198;-92
2021/10/23 01:18:02;;;;;;;1.20;0.90;;;;;;;;;;5043455;28;20207;-92
2021/10/23 01:20:30;;;;;;;1.00;0.87;;;;;;;;;;5041779;28;20660;-90
2021/10/23 01:22:57;;;;;;;1.13;1.00;;;;;;;;;;5042408;28;20209;-90
2021/10/23 01:25:25;;;;;;;1.80;1.10;;;;;;;;;;5044454;28;20214;-92
2021/10/23 01:27:53;;;;;;;1.03;0.93;;;;;;;;;;5047654;28;20194;-92
2021/10/23 01:30:23;;;;;;;1.60;0.97;;;;;;;;;;5045651;28;20230;-91
2021/10/23 01:32:51;;;;;;;1.10;1.00;;;;;;;;;;5032533;28;20211;-92
2021/10/23 01:35:18;;;;;;;1.10;0.93;;;;;;;;;;5043192;28;20225;-92
2021/10/23 01:37:47;;;;;;;2.67;1.43;;;;;;;;;;5046658;28;20201;-92
2021/10/23 01:40:18;;;;;;;1.13;0.90;;;;;;;;;;5041072;28;20214;-92
2021/10/23 01:42:46;;;;;;;1.20;1.10;;;;;;;;;;5048498;28;20199;-92
2021/10/23 01:45:13;;;;;;;1.67;1.30;;;;;;;;;;5045226;28;20213;-92
2021/10/23 01:47:42;;;;;;;1.20;1.10;;;;;;;;;;5007657;28;20576;-92
2021/10/23 01:50:21;;;;;;;1.07;0.97;;;;;;;;;;5004826;28;20223;-92
2021/10/23 01:52:49;;;;;;;1.10;1.00;;;;;;;;;;5018853;28;20194;-91
2021/10/23 01:55:16;;;;;;;1.50;1.00;;;;;;;;;;5043851;28;20231;-91
2021/10/23 01:57:44;;;;;;;1.37;1.13;;;;;;;;;;5041781;28;20680;-92
2021/10/23 02:00:14;;;;;;;1.20;0.97;;;;;;;;;;5039718;28;20199;-90
2021/10/23 02:02:42;;;;;;;1.50;1.03;;;;;;;;;;5035505;28;20703;-92
2021/10/23 02:05:09;;;;;;;1.77;1.20;;;;;;;;;;5045734;28;20221;-91
2021/10/23 02:07:36;;;;;;;1.20;1.00;;;;;;;;;;5042909;28;20206;-92
2021/10/23 02:10:05;;;;;;;1.20;1.10;;;;;;;;;;5031819;28;20234;-91
2021/10/23 02:12:33;;;;;;;1.00;0.90;;;;;;;;;;5037859;28;20632;-92
2021/10/23 02:15:01;;;;;;;1.10;0.90;;;;;;;;;;5046048;28;20197;-92
2021/10/23 02:17:28;;;;;;;1.07;0.90;;;;;;;;;;5043217;28;20211;-92
2021/10/23 02:19:55;;;;;;;1.17;1.00;;;;;;;;;;5029813;28;20194;-93
2021/10/23 02:22:22;;;;;;;1.80;1.13;;;;;;;;;;5042138;28;20202;-93
2021/10/23 02:24:49;;;;;;;2.13;1.10;;;;;;;;;;5047204;28;20209;-93
2021/10/23 02:27:16;;;;;;;1.53;1.20;;;;;;;;;;5041697;28;20211;-92
2021/10/23 02:29:44;;;;;;;1.30;0.90;;;;;;;;;;5041190;28;20355;-94
2021/10/23 02:32:11;;;;;;;2.53;1.10;;;;;;;;;;5045120;28;20625;-92
2021/10/23 02:34:38;;;;;;;1.40;1.03;;;;;;;;;;5037382;28;20222;-92
2021/10/23 02:37:06;;;;;;;2.00;1.30;;;;;;;;;;5044279;28;20205;-92
2021/10/23 02:39:33;;;;;;;1.23;1.10;;;;;;;;;;5026499;28;20206;-92
2021/10/23 02:42:00;;;;;;;1.37;1.00;;;;;;;;;;5043045;28;20210;-92
2021/10/23 02:44:32;;;;;;;1.47;1.10;;;;;;;;;;5034806;28;20195;-92
2021/10/23 02:47:00;;;;;;;1.37;1.07;;;;;;;;;;5040758;28;20218;-92
2021/10/23 02:49:27;;;;;;;1.13;1.03;;;;;;;;;;5042615;28;20210;-92
2021/10/23 02:51:54;;;;;;;1.67;1.13;;;;;;;;;;5041160;28;20645;-93
2021/10/23 02:54:21;;;;;;;1.73;1.10;;;;;;;;;;5046434;28;20198;-91
2021/10/23 02:56:49;;;;;;;1.70;1.20;;;;;;;;;;5020830;28;20585;-93
2021/10/23 02:59:16;;;;;;;1.80;1.20;;;;;;;;;;5033920;28;20673;-92
2021/10/23 03:01:43;;;;;;;1.90;1.10;;;;;;;;;;5040335;28;20576;-92
2021/10/23 03:04:10;;;;;;;1.97;1.67;;;;;;;;;;5046640;28;20202;-92
2021/10/23 03:06:37;;;;;;;2.70;1.03;;;;;;;;;;5034643;28;20202;-91
2021/10/23 03:09:05;;;;;;;1.40;1.30;;;;;;;;;;5037989;28;20600;-91
2021/10/23 03:11:32;;;;;;;1.30;1.20;;;;;;;;;;5040494;28;20233;-92
2021/10/23 03:13:59;;;;;;;1.90;1.10;;;;;;;;;;5044213;28;20214;-92
2021/10/23 03:16:27;;;;;;;1.37;1.20;;;;;;;;;;5032219;28;20210;-91
2021/10/23 03:18:54;;;;;;;1.40;1.10;;;;;;;;;;5042839;28;20253;-91
2021/10/23 03:21:22;;;;;;;1.43;1.33;;;;;;;;;;5044458;28;20801;-92
2021/10/23 03:23:49;;;;;;;1.43;1.17;;;;;;;;;;5038929;28;20464;-92
2021/10/23 03:26:16;;;;;;;1.50;1.27;;;;;;;;;;5012342;28;20199;-92
2021/10/23 03:28:44;;;;;;;1.10;0.97;;;;;;;;;;5024221;28;20202;-92
2021/10/23 03:31:11;;;;;;;1.47;1.10;;;;;;;;;;5028810;28;20222;-92
2021/10/23 03:33:43;;;;;;;1.33;1.20;;;;;;;;;;5037989;28;20206;-93
2021/10/23 03:36:10;;;;;;;1.00;0.90;;;;;;;;;;5030227;28;20221;-92
2021/10/23 03:38:38;;;;;;;1.43;1.23;;;;;;;;;;5041013;28;20203;-91
2021/10/23 03:41:05;;;;;;;1.17;1.07;;;;;;;;;;5043026;28;20210;-92
2021/10/23 03:43:32;;;;;;;1.43;1.33;;;;;;;;;;5035782;28;20195;-92
2021/10/23 03:45:59;;;;;;;1.37;1.00;;;;;;;;;;5038002;28;20222;-92
2021/10/23 03:48:27;;;;;;;1.13;1.03;;;;;;;;;;5043053;28;20217;-92
2021/10/23 03:50:54;;;;;;;1.57;1.17;;;;;;;;;;5039530;28;20214;-92
2021/10/23 03:53:21;;;;;;;2.03;0.97;;;;;;;;;;5030708;28;20222;-93
2021/10/23 03:55:49;;;;;;;1.23;1.13;;;;;;;;;;5038527;28;20334;-92
2021/10/23 03:58:16;;;;;;;1.53;1.17;;;;;;;;;;5031322;28;20215;-91
2021/10/23 04:00:44;;;;;;;1.67;1.10;;;;;;;;;;5037856;28;20214;-92
2021/10/23 04:03:11;;;;;;;1.20;1.10;;;;;;;;;;5030925;28;20211;-92
2021/10/23 04:05:39;;;;;;;1.20;1.10;;;;;;;;;;5034981;28;20426;-92
2021/10/23 04:08:06;;;;;;;0.93;0.80;;;;;;;;;;5044223;28;20210;-92
2021/10/23 04:10:33;;;;;;;1.20;1.07;;;;;;;;;;5040226;28;20257;-92
2021/10/23 04:13:00;;;;;;;2.17;1.40;;;;;;;;;;5045821;28;20222;-92
2021/10/23 04:15:29;;;;;;;1.40;1.17;;;;;;;;;;5039453;28;20195;-92
2021/10/23 04:17:56;;;;;;;1.60;1.27;;;;;;;;;;5032972;28;20203;-92
2021/10/23 04:20:23;;;;;;;2.30;1.30;;;;;;;;;;5044192;28;20214;-92
2021/10/23 04:22:50;;;;;;;1.80;1.70;;;;;;;;;;5030228;28;20688;-92
2021/10/23 04:25:19;;;;;;;1.97;1.77;;;;;;;;;;5045891;28;20215;-92
2021/10/23 04:27:47;;;;;;;2.03;1.63;;;;;;;;;;5048178;28;20194;-92
2021/10/23 04:30:14;;;;;;;2.20;1.47;;;;;;;;;;5047901;28;20217;-91
2021/10/23 04:32:41;;;;;;;2.13;1.70;;;;;;;;;;5049395;28;20205;-92
2021/10/23 04:35:09;;;;;;;1.90;1.80;;;;;;;;;;5043341;28;20206;-92
2021/10/23 04:37:36;;;;;;;2.13;1.80;;;;;;;;;;5047534;28;20635;-92
2021/10/23 04:40:03;;;;;;;2.10;1.83;;;;;;;;;;5043027;28;20195;-90
2021/10/23 04:42:32;;;;;;;2.00;1.80;;;;;;;;;;5049469;28;20655;-90
2021/10/23 04:44:59;;;;;;;2.83;2.17;;;;;;;;;;5039149;28;20694;-92
2021/10/23 04:47:26;;;;;;;1.70;1.60;;;;;;;;;;5043687;28;20217;-93
2021/10/23 04:49:53;;;;;;;1.90;1.80;;;;;;;;;;5048030;28;20206;-92
2021/10/23 04:52:20;;;;;;;2.40;2.20;;;;;;;;;;5048772;28;20332;-92
2021/10/23 04:54:48;;;;;;;2.30;2.10;;;;;;;;;;5047816;28;20559;-92
2021/10/23 04:57:15;;;;;;;2.50;2.30;;;;;;;;;;5048642;28;20202;-91
2021/10/23 04:59:42;;;;;;;3.00;2.70;;;;;;;;;;5040977;28;20209;-92
2021/10/23 05:02:09;;;;;;;2.30;2.10;;;;;;;;;;5029089;28;20201;-93
2021/10/23 05:04:36;;;;;;;2.50;2.30;;;;;;;;;;5033204;28;20655;-91
2021/10/23 05:07:04;;;;;;;2.30;2.10;;;;;;;;;;5046234;28;20662;-92
2021/10/23 05:09:31;;;;;;;2.50;2.30;;;;;;;;;;5043890;28;20234;-92
2021/10/23 05:11:58;;;;;;;3.43;2.53;;;;;;;;;;5041990;28;20237;-91
2021/10/23 05:14:25;;;;;;;2.63;2.43;;;;;;;;;;5030763;28;20202;-92
2021/10/23 05:16:52;;;;;;;4.10;2.80;;;;;;;;;;5045329;28;20206;-93
2021/10/23 05:19:19;;;;;;;3.53;2.80;;;;;;;;;;5032045;28;20198;-92
2021/10/23 05:21:47;;;;;;;2.90;2.60;;;;;;;;;;5038309;28;20213;-91
2021/10/23 05:24:14;;;;;;;2.90;2.70;;;;;;;;;;5034125;28;20206;-92
2021/10/23 05:26:41;;;;;;;3.17;2.80;;;;;;;;;;5027769;28;20195;-92
2021/10/23 05:29:08;;;;;;;2.80;2.50;;;;;;;;;;5048346;28;20202;-91
2021/10/23 05:31:35;;;;;;;3.43;2.70;;;;;;;;;;5042711;28;20229;-90
2021/10/23 05:34:03;;;;;;;2.97;2.70;;;;;;;;;;5043733;28;20202;-91
2021/10/23 05:36:30;;;;;;;2.60;2.40;;;;;;;;;;5046511;28;20206;-91
2021/10/23 05:38:57;;;;;;;2.97;2.67;;;;;;;;;;5047538;28;20202;-91
2021/10/23 05:41:24;;;;;;;3.40;3.10;;;;;;;;;;5043028;28;20202;-93
2021/10/23 05:43:52;;;;;;;3.07;2.87;;;;;;;;;;5046560;28;20213;-92
2021/10/23 05:46:19;;;;;;;3.93;3.20;;;;;;;;;;5043500;28;20210;-90
2021/10/23 05:48:46;;;;;;;3.03;2.73;;;;;;;;;;5044855;28;20198;-92
2021/10/23 05:51:13;;;;;;;2.70;2.50;;;;;;;;;;5037789;28;20704;-91
2021/10/23 05:53:40;;;;;;;2.73;2.53;;;;;;;;;;5034842;28;20649;-92
2021/10/23 05:56:08;;;;;;;3.23;2.53;;;;;;;;;;5038247;28;20688;-91
2021/10/23 05:58:35;;;;;;;2.60;2.40;;;;;;;;;;5042061;28;20871;-91
2021/10/23 06:01:07;;;;;;;3.33;3.00;;;;;;;;;;5036206;28;20210;-91
2021/10/23 06:03:37;;;;;;;2.97;2.60;;;;;;;;;;5040763;28;20205;-91
2021/10/23 06:06:05;;;;;;;2.60;2.40;;;;;;;;;;5049854;28;20895;-91
2021/10/23 06:08:33;;;;;;;3.20;2.83;;;;;;;;;;5044555;28;20195;-91
2021/10/23 06:11:03;;;;;;;3.20;2.90;;;;;;;;;;5043925;28;20237;-89
2021/10/23 06:13:32;;;;;;;3.13;2.57;;;;;;;;;;5042402;28;20679;-88
2021/10/23 06:15:59;;;;;;;2.93;2.60;;;;;;;;;;5034371;28;20742;-89
2021/10/23 06:18:26;;;;;;;2.93;2.63;;;;;;;;;;5044636;28;20209;-90
2021/10/23 06:20:53;;;;;;;4.63;3.10;;;;;;;;;;5029413;28;20283;-86
2021/10/23 06:23:21;;;;;;;3.73;2.90;;;;;;;;;;5037594;28;20214;-88
2021/10/23 06:25:48;;;;;;;3.20;2.90;;;;;;;;;;5029345;28;20254;-87
2021/10/23 06:28:15;;;;;;;3.13;2.83;;;;;;;;;;5039289;28;20198;-87
2021/10/23 06:30:42;;;;;;;3.30;3.10;;;;;;;;;;5042945;28;20743;-87
2021/10/23 06:33:09;;;;;;;2.73;2.53;;;;;;;;;;5038374;28;20210;-89
2021/10/23 06:35:37;;;;;;;3.20;2.90;;;;;;;;;;5026644;28;20206;-90
2021/10/23 06:38:04;;;;;;;3.17;2.83;;;;;;;;;;5043397;28;20309;-86
2021/10/23 06:40:31;;;;;;;2.90;2.60;;;;;;;;;;5044968;28;20198;-83
2021/10/23 06:42:58;;;;;;;3.50;2.77;;;;;;;;;;5041968;28;20194;-86
2021/10/23 06:45:30;;;;;;;5.37;2.90;;;;;;;;;;5035554;28;20868;-86
2021/10/23 06:47:59;;;;;;;3.23;2.87;;;;;;;;;;5027478;28;20830;-91
2021/10/23 06:50:26;;;;;;;2.87;2.67;;;;;;;;;;5044309;28;20198;-91
2021/10/23 06:52:53;;;;;;;3.00;2.63;;;;;;;;;;5032386;28;20203;-94
2021/10/23 06:55:21;;;;;;;4.70;3.20;;;;;;;;;;5039776;28;20202;-90
2021/10/23 06:57:48;;;;;;;3.57;3.10;;;;;;;;;;5035087;28;20215;-90
2021/10/23 07:00:15;;;;;;;3.77;3.07;;;;;;;;;;5039586;28;20217;-91
2021/10/23 07:02:44;;;;;;;3.77;2.63;;;;;;;;;;5025523;28;20201;-91
2021/10/23 07:05:12;;;;;;;2.60;2.40;;;;;;;;;;5023720;28;20208;-84
2021/10/23 07:07:40;;;;;;;3.70;2.90;;;;;;;;;;5038339;28;20909;-80
2021/10/23 07:10:08;;;;;;;4.00;2.87;;;;;;;;;;5037467;28;20226;-85
2021/10/23 07:12:35;;;;;;;3.47;3.17;;;;;;;;;;5027407;28;20227;-85
2021/10/23 07:15:03;;;;;;;3.53;3.07;;;;;;;;;;5040684;28;20225;-85
2021/10/23 07:17:31;;;;;;;4.23;3.10;;;;;;;;;;5041972;28;20202;-84
2021/10/23 07:19:58;;;;;;;3.20;2.90;;;;;;;;;;5036452;28;20207;-84
2021/10/23 07:22:25;;;;;;;3.90;3.50;;;;;;;;;;5026846;28;20218;-85
2021/10/23 07:24:52;;;;;;;3.00;2.70;;;;;;;;;;5022765;28;20206;-85
2021/10/23 07:27:19;;;;;;;5.57;3.37;;;;;;;;;;5028331;28;20587;-85
2021/10/23 07:29:47;;;;;;;4.30;3.73;;;;;;;;;;5036425;28;20191;-85
2021/10/23 07:32:14;;;;;;;3.70;3.40;;;;;;;;;;5032122;28;20756;-84
2021/10/23 07:34:41;;;;;;;3.90;3.50;;;;;;;;;;5013389;28;20261;-85
2021/10/23 07:37:08;;;;;;;3.87;3.37;;;;;;;;;;5041284;28;20213;-84
2021/10/23 07:39:36;;;;;;;4.30;3.90;;;;;;;;;;5030459;28;20218;-86
2021/10/23 07:42:04;;;;;;;5.10;4.07;;;;;;;;;;5035321;28;20603;-85
2021/10/23 07:44:35;;;;;;;4.43;3.83;;;;;;;;;;5043129;28;20283;-85
2021/10/23 07:47:03;;;;;;;5.10;3.50;;;;;;;;;;5039843;28;20233;-85
2021/10/23 07:49:30;;;;;;;4.27;3.83;;;;;;;;;;5031205;28;20211;-84
2021/10/23 07:51:57;;;;;;;3.70;3.40;;;;;;;;;;5026972;28;20260;-85
2021/10/23 07:54:24;;;;;;;5.07;3.90;;;;;;;;;;5026712;28;20199;-85
2021/10/23 07:56:51;;;;;;;4.10;3.57;;;;;;;;;;5044523;28;20202;-85
2021/10/23 07:59:19;;;;;;;4.20;3.80;;;;;;;;;;5026324;28;20572;-85
2021/10/23 08:01:46;;;;;;;4.73;3.87;;;;;;;;;;5040027;28;20198;-84
2021/10/23 08:04:13;;;;;;;5.27;4.23;;;;;;;;;;5047585;28;20194;-83
2021/10/23 08:06:45;;;;;;;4.20;3.60;;;;;;;;;;5042528;28;20210;-84
2021/10/23 08:09:12;;;;;;;5.27;4.40;;;;;;;;;;5043728;28;20214;-85
2021/10/23 08:11:41;;;;;;;5.13;4.40;;;;;;;;;;5037406;28;20456;-83
2021/10/23 08:14:08;;;;;;;4.27;3.87;;;;;;;;;;5037214;28;20190;-83
2021/10/23 08:16:35;;;;;;;5.03;4.20;;;;;;;;;;5040167;28;20194;-83
2021/10/23 08:19:03;;;;;;;4.50;3.80;;;;;;;;;;5041748;28;20194;-83
2021/10/23 08:21:31;;;;;;;6.50;4.57;;;;;;;;;;5039623;28;20195;-88
2021/10/23 08:23:59;;;;;;;4.67;4.27;;;;;;;;;;5045867;28;20207;-84
2021/10/23 08:26:26;;;;;;;4.67;4.20;;;;;;;;;;5041408;28;20208;-84
2021/10/23 08:28:54;;;;;;;4.50;3.93;;;;;;;;;;5041676;28;20591;-84
2021/10/23 08:31:22;;;;;;;4.77;4.37;;;;;;;;;;5043865;28;20222;-84
2021/10/23 08:33:57;;;;;;;4.87;4.27;;;;;;;;;;5021353;28;20301;-84
2021/10/23 08:36:25;;;;;;;6.53;4.03;;;;;;;;;;5043515;28;20658;-84
2021/10/23 08:38:53;;;;;;;6.67;4.40;;;;;;;;;;5043339;28;20218;-85
2021/10/23 08:41:20;;;;;;;4.20;3.80;;;;;;;;;;5032729;28;20685;-87
2021/10/23 08:43:47;;;;;;;4.90;3.87;;;;;;;;;;5024666;28;20203;-85
2021/10/23 08:46:20;;;;;;;4.03;3.67;;;;;;;;;;5031846;28;20206;-85
2021/10/23 08:48:49;;;;;;;4.80;3.60;;;;;;;;;;5041947;28;20210;-85
2021/10/23 08:51:16;;;;;;;5.83;3.70;;;;;;;;;;5038467;28;20206;-85
2021/10/23 08:53:44;;;;;;;5.00;3.73;;;;;;;;;;5024170;28;20201;-86
2021/10/23 08:56:12;;;;;;;3.80;3.50;;;;;;;;;;5047093;28;20225;-85
2021/10/23 08:58:39;;;;;;;4.07;3.57;;;;;;;;;;5036960;28;20214;-85
2021/10/23 09:01:08;;;;;;;4.10;3.70;;;;;;;;;;5036883;28;20686;-86
2021/10/23 09:03:36;;;;;;;4.33;3.83;;;;;;;;;;5039698;28;20237;-85
2021/10/23 09:06:04;;;;;;;4.70;3.70;;;;;;;;;;5043415;28;20210;-86
2021/10/23 09:08:31;;;;;;;4.83;4.40;;;;;;;;;;5041035;28;20422;-85
2021/10/23 09:11:26;;;;;;;4.37;3.97;;;;;;;;;;5039945;28;20249;-85
2021/10/23 09:13:54;;;;;;;4.73;3.93;;;;;;;;;;5022721;28;20654;-85
2021/10/23 09:16:21;;;;;;;4.63;4.23;;;;;;;;;;5046355;28;20218;-85
2021/10/23 09:18:49;;;;;;;4.37;3.97;;;;;;;;;;5046511;28;20282;-85
2021/10/23 09:21:23;;;;;;;4.80;4.00;;;;;;;;;;5045173;28;20198;-85
2021/10/23 09:23:51;;;;;;;4.27;3.87;;;;;;;;;;5029331;28;20840;-86
2021/10/23 09:26:37;;;;;;;4.40;4.00;;;;;;;;;;5042152;28;20332;-86
2021/10/23 09:29:14;;;;;;;4.50;4.10;;;;;;;;;;5043206;28;20579;-85
2021/10/23 09:31:42;;;;;;;10.10;4.33;;;;;;;;;;5036395;28;20237;-86
2021/10/23 09:34:10;;;;;;;4.17;3.77;;;;;;;;;;5025175;28;20203;-85
2021/10/23 09:36:47;;;;;;;4.37;3.97;;;;;;;;;;5041720;28;20234;-84
2021/10/23 09:39:35;;;;;;;4.33;3.80;;;;;;;;;;5043340;28;20647;-85
2021/10/23 09:42:04;;;;;;;4.70;4.20;;;;;;;;;;5041948;28;20868;-85
2021/10/23 09:44:31;;;;;;;4.70;4.03;;;;;;;;;;5045068;28;20198;-87
2021/10/23 09:46:58;;;;;;;4.03;3.73;;;;;;;;;;5037585;28;20214;-86
2021/10/23 09:49:26;;;;;;;4.53;4.13;;;;;;;;;;5014463;28;20225;-86
2021/10/23 09:52:03;;;;;;;4.60;4.20;;;;;;;;;;5042689;28;20214;-85
2021/10/23 09:54:30;;;;;;;4.30;3.90;;;;;;;;;;5040398;28;20202;-86
2021/10/23 09:56:58;;;;;;;4.83;4.20;;;;;;;;;;5044144;28;20194;-86
2021/10/23 09:59:29;;;;;;;4.30;3.90;;;;;;;;;;5040455;28;20233;-86
2021/10/23 10:01:57;;;;;;;4.53;4.13;;;;;;;;;;5034390;28;20195;-83
2021/10/23 10:04:25;;;;;;;3.80;3.50;;;;;;;;;;5037386;28;20219;-83
2021/10/23 10:06:53;;;;;;;4.03;3.73;;;;;;;;;;5031388;28;20195;-84
2021/10/23 10:09:21;;;;;;;3.73;3.40;;;;;;;;;;5033468;28;20213;-83
2021/10/23 10:11:49;;;;;;;3.97;3.67;;;;;;;;;;5020992;28;20226;-82
2021/10/23 10:14:16;;;;;;;4.30;4.00;;;;;;;;;;5039955;28;20477;-85
2021/10/23 10:16:55;;;;;;;4.00;3.70;;;;;;;;;;5027738;28;20196;-86
2021/10/23 10:19:22;;;;;;;4.07;3.73;;;;;;;;;;5038856;28;20210;-85
2021/10/23 10:21:50;;;;;;;7.40;3.90;;;;;;;;;;5024438;28;20219;-86
2021/10/23 10:24:19;;;;;;;4.80;4.23;;;;;;;;;;5024492;28;20214;-85
2021/10/23 10:27:00;;;;;;;5.80;4.40;;;;;;;;;;5038200;28;20186;-85
2021/10/23 10:29:35;;;;;;;4.00;3.70;;;;;;;;;;5019962;28;20230;-85
2021/10/23 10:32:16;;;;;;;4.70;4.30;;;;;;;;;;5038298;28;20558;-86
2021/10/23 10:42:50;;;;;;;5.77;5.20;;;;;;;;;;5039755;28;20205;-86
2021/10/23 10:45:38;;;;;;;5.30;4.90;;;;;;;;;;5041330;28;20194;-85
2021/10/23 10:48:08;;;;;;;5.40;4.90;;;;;;;;;;5040967;28;20862;-85
2021/10/23 10:50:36;;;;;;;6.00;5.40;;;;;;;;;;5029742;28;20773;-86
2021/10/23 10:53:14;;;;;;;5.37;4.87;;;;;;;;;;5024818;28;20476;-86
2021/10/23 10:55:41;;;;;;;5.40;4.67;;;;;;;;;;5030781;28;20478;-86
2021/10/23 10:58:09;;;;;;;4.77;4.33;;;;;;;;;;5036394;28;20214;-86
2021/10/23 11:00:45;;;;;;;5.10;4.60;;;;;;;;;;5031996;28;20199;-85
2021/10/23 11:03:32;;;;;;;4.80;4.40;;;;;;;;;;5021946;28;20210;-86
2021/10/23 11:06:18;;;;;;;4.90;4.50;;;;;;;;;;5027808;28;20213;-85
2021/10/23 11:08:46;;;;;;;4.40;4.00;;;;;;;;;;5041119;28;20199;-85
2021/10/23 11:11:13;;;;;;;4.90;4.47;;;;;;;;;;5039519;28;20233;-84
2021/10/23 11:13:44;;;;;;;5.00;4.50;;;;;;;;;;5033796;28;20235;-85
2021/10/23 11:16:24;;;;;;;3.90;3.60;;;;;;;;;;5015170;28;20198;-86
2021/10/23 11:18:58;;;;;;;4.67;4.27;;;;;;;;;;5025349;28;20198;-86
2021/10/23 11:21:26;;;;;;;4.20;3.80;;;;;;;;;;5041096;28;20194;-85
2021/10/23 11:23:54;;;;;;;6.27;3.83;;;;;;;;;;5043787;28;20198;-86
2021/10/23 11:26:21;;;;;;;4.83;4.33;;;;;;;;;;5044172;28;20209;-86
2021/10/23 11:28:49;;;;;;;4.17;3.77;;;;;;;;;;5042866;28;20210;-86
2021/10/23 11:31:23;;;;;;;3.67;3.37;;;;;;;;;;5043999;28;20195;-86
2021/10/23 11:33:55;;;;;;;4.00;3.70;;;;;;;;;;5020871;28;20367;-86
2021/10/23 11:36:22;;;;;;;3.90;3.60;;;;;;;;;;5043088;28;20206;-87
2021/10/23 11:38:50;;;;;;;5.80;4.00;;;;;;;;;;5016889;28;20190;-86
2021/10/23 11:41:27;;;;;;;3.97;3.63;;;;;;;;;;5038547;28;20229;-87
2021/10/23 11:44:08;;;;;;;4.40;3.40;;;;;;;;;;5031360;28;20953;-86
2021/10/23 11:46:36;;;;;;;4.67;3.77;;;;;;;;;;5035760;28;20210;-85
2021/10/23 11:49:05;;;;;;;4.10;3.60;;;;;;;;;;5044442;28;20208;-86
2021/10/23 11:51:32;;;;;;;3.33;3.00;;;;;;;;;;5038097;28;20203;-87
2021/10/23 11:54:00;;;;;;;3.47;3.17;;;;;;;;;;5043838;28;20225;-87
2021/10/23 11:56:28;;;;;;;3.47;3.17;;;;;;;;;;5019296;28;20205;-86
2021/10/23 11:58:58;;;;;;;3.80;3.40;;;;;;;;;;5038183;28;20221;-86
2021/10/23 12:01:29;;;;;;;3.30;3.00;;;;;;;;;;5038784;28;20195;-87
2021/10/23 12:04:00;;;;;;;3.17;2.80;;;;;;;;;;5031794;28;20415;-86
2021/10/23 12:06:41;;;;;;;3.60;2.87;;;;;;;;;;5039541;28;20215;-87
2021/10/23 12:09:15;;;;;;;4.37;2.60;;;;;;;;;;5042001;28;20194;-86
2021/10/23 12:11:42;;;;;;;3.57;3.10;;;;;;;;;;4991139;28;20196;-86
2021/10/23 12:14:11;;;;;;;3.53;3.20;;;;;;;;;;5001233;28;20238;-86
2021/10/23 12:16:38;;;;;;;4.40;2.83;;;;;;;;;;4983023;28;20197;-87
2021/10/23 12:19:07;;;;;;;4.43;2.77;;;;;;;;;;5002058;28;20210;-86
2021/10/23 12:21:54;;;;;;;4.00;2.70;;;;;;;;;;4997779;28;20196;-87
2021/10/23 12:24:22;;;;;;;3.13;2.80;;;;;;;;;;4999469;28;20585;-87
2021/10/23 12:27:01;;;;;;;3.73;3.00;;;;;;;;;;5001985;28;20203;-86
2021/10/23 12:29:39;;;;;;;3.00;2.70;;;;;;;;;;4979056;28;20685;-87
2021/10/23 12:32:09;;;;;;;3.10;2.80;;;;;;;;;;4993545;28;20212;-87
2021/10/23 12:34:51;;;;;;;3.10;2.77;;;;;;;;;;5000958;28;20244;-85
2021/10/23 12:37:28;;;;;;;3.03;2.70;;;;;;;;;;5000334;28;20211;-86
2021/10/23 12:40:05;;;;;;;3.07;2.77;;;;;;;;;;5004915;28;20200;-85
2021/10/23 12:42:36;;;;;;;3.23;2.93;;;;;;;;;;4996337;28;20192;-85
2021/10/23 12:45:04;;;;;;;5.17;2.83;;;;;;;;;;5005626;28;20730;-86
2021/10/23 12:47:31;;;;;;;3.60;2.93;;;;;;;;;;4992533;28;20199;-86
2021/10/23 12:49:58;;;;;;;2.97;2.70;;;;;;;;;;5004987;28;20215;-86
2021/10/23 12:52:26;;;;;;;3.97;2.93;;;;;;;;;;5007700;28;20222;-86
2021/10/23 12:54:53;;;;;;;4.53;3.00;;;;;;;;;;5003366;28;20200;-87
2021/10/23 12:57:20;;;;;;;3.60;2.80;;;;;;;;;;5005109;28;20197;-87
2021/10/23 12:59:48;;;;;;;2.70;2.50;;;;;;;;;;5000488;28;20706;-87
2021/10/23 13:02:15;;;;;;;3.03;2.60;;;;;;;;;;5007300;28;20561;-87
2021/10/23 13:04:43;;;;;;;2.63;2.43;;;;;;;;;;5004430;28;20204;-86
2021/10/23 13:07:10;;;;;;;3.13;2.60;;;;;;;;;;4989193;28;20219;-86
2021/10/23 13:09:37;;;;;;;3.00;2.70;;;;;;;;;;4988090;28;20242;-86
2021/10/23 13:12:05;;;;;;;3.57;2.70;;;;;;;;;;5022078;28;20208;-86
2021/10/23 13:14:32;;;;;;;2.50;2.30;;;;;;;;;;5018630;28;20391;-87
2021/10/23 13:16:59;;;;;;;3.00;2.30;;;;;;;;;;5011622;28;20199;-89
2021/10/23 13:19:27;;;;;;;2.70;2.23;;;;;;;;;;5014324;28;20198;-87
2021/10/23 13:21:54;;;;;;;2.97;2.50;;;;;;;;;;5019163;28;20659;-87
2021/10/23 13:24:21;;;;;;;2.40;2.20;;;;;;;;;;5017046;28;20211;-89
2021/10/23 13:26:49;;;;;;;2.90;2.40;;;;;;;;;;5019136;28;20211;-84
2021/10/23 13:29:16;;;;;;;2.83;2.13;;;;;;;;;;5020152;28;20202;-87
2021/10/23 13:31:45;;;;;;;3.10;2.27;;;;;;;;;;5016377;28;20218;-90
2021/10/23 13:34:13;;;;;;;3.37;2.37;;;;;;;;;;5018713;28;20223;-91
2021/10/23 13:36:40;;;;;;;3.00;2.40;;;;;;;;;;5013383;28;20207;-91
2021/10/23 13:39:10;;;;;;;4.60;2.70;;;;;;;;;;5025290;28;20195;-92
2021/10/23 13:41:38;;;;;;;4.77;2.80;;;;;;;;;;5020069;28;20207;-89
2021/10/23 13:44:06;;;;;;;3.03;2.40;;;;;;;;;;5017374;28;20539;-89
2021/10/23 13:46:33;;;;;;;2.70;2.40;;;;;;;;;;5020858;28;20562;-88
2021/10/23 13:49:00;;;;;;;3.50;2.20;;;;;;;;;;5020162;28;20698;-89
2021/10/23 13:51:27;;;;;;;2.90;2.00;;;;;;;;;;5022225;28;20575;-88
2021/10/23 13:53:55;;;;;;;2.27;2.07;;;;;;;;;;5014197;28;20219;-89
2021/10/23 13:56:22;;;;;;;2.97;2.10;;;;;;;;;;5016588;28;20199;-89
2021/10/23 13:58:49;;;;;;;2.67;1.93;;;;;;;;;;5023416;28;20210;-89
2021/10/23 14:01:16;;;;;;;1.90;1.80;;;;;;;;;;5018826;28;20254;-89
2021/10/23 14:03:45;;;;;;;3.60;2.10;;;;;;;;;;5020344;28;20195;-89
2021/10/23 14:06:12;;;;;;;4.70;2.27;;;;;;;;;;5022098;28;20204;-88
2021/10/23 14:08:39;;;;;;;2.77;1.80;;;;;;;;;;5025025;28;20198;-88
2021/10/23 14:11:07;;;;;;;2.93;1.60;;;;;;;;;;5039574;28;20234;-89
2021/10/23 14:13:34;;;;;;;2.67;1.93;;;;;;;;;;5023722;28;20748;-88
2021/10/23 14:16:01;;;;;;;2.57;1.80;;;;;;;;;;5023307;28;20199;-89
2021/10/23 14:18:29;;;;;;;2.10;1.70;;;;;;;;;;5030867;28;20563;-89
2021/10/23 14:20:57;;;;;;;2.23;1.73;;;;;;;;;;5038453;28;20190;-88
2021/10/23 14:23:25;;;;;;;2.87;1.87;;;;;;;;;;5025967;28;20211;-82
2021/10/23 14:25:54;;;;;;;2.37;1.70;;;;;;;;;;5022951;28;20212;-88
2021/10/23 14:31:20;;;;;;;2.20;1.63;;;;;;;;;;5020522;28;20590;-89
2021/10/23 14:33:49;;;;;;;1.90;1.57;;;;;;;;;;5034050;28;20214;-84
2021/10/23 14:36:16;;;;;;;3.03;1.30;;;;;;;;;;5036734;28;20651;-83
2021/10/23 14:38:44;;;;;;;2.20;1.67;;;;;;;;;;5026271;28;20195;-88
2021/10/23 14:41:12;;;;;;;3.13;1.43;;;;;;;;;;5023581;28;20199;-92
2021/10/23 14:43:44;;;;;;;3.33;1.93;;;;;;;;;;5025394;28;20237;-91
2021/10/23 14:46:11;;;;;;;3.20;1.70;;;;;;;;;;5042654;28;20209;-89
2021/10/23 14:48:39;;;;;;;2.77;1.70;;;;;;;;;;5040048;28;20708;-82
2021/10/23 14:51:09;;;;;;;2.17;1.40;;;;;;;;;;5030149;28;20651;-83
2021/10/23 14:53:36;;;;;;;3.83;1.47;;;;;;;;;;5032389;28;20588;-83
2021/10/23 14:56:04;;;;;;;2.00;1.43;;;;;;;;;;5041829;28;20203;-82
2021/10/23 14:58:32;;;;;;;2.80;1.70;;;;;;;;;;5041333;28;20650;-83
2021/10/23 15:01:00;;;;;;;2.90;1.80;;;;;;;;;;5038049;28;20605;-83
2021/10/23 15:03:28;;;;;;;2.17;1.70;;;;;;;;;;5040334;28;20194;-83